sim
Sign-in with your pilot id or email,
or register
Callsign
Passwort

Schedule Details

Flight Number: DLH481 (1)
Departure: Denver International Airport (KDEN) at 23:20
Arrival: Munich Airport (EDDM) at 08:50
Route: Lufthansa Passenger Schedule. Enter filed route here before submitting Pirep.

Weather Information
Getting current METAR information for KDEN 210653Z 33005KT 10SM CLR 14/06 A3018 RMK AO2 SLP141 T01440056 403000117
Getting current METAR information for EDDM 210650Z VRB01KT CAVOK 11/11 Q1017 BECMG 09005KT

Schedule Frequency

Route Map